createdAt,value
2023-02-17T00:01:00.787Z,6.96
2023-02-17T00:03:28.355Z,7.01
2023-02-17T00:05:54.876Z,7.00
2023-02-17T00:08:21.493Z,7.01
2023-02-17T00:10:58.496Z,7.04
2023-02-17T00:13:25.508Z,7.05
2023-02-17T00:15:52.301Z,7.04
2023-02-17T00:18:18.865Z,7.05
2023-02-17T00:20:45.377Z,7.04
2023-02-17T00:23:11.901Z,7.07
2023-02-17T00:25:39.046Z,7.09
2023-02-17T00:28:05.791Z,7.13
2023-02-17T00:30:32.641Z,7.14
2023-02-17T00:33:00.754Z,7.14
2023-02-17T00:35:27.254Z,7.08
2023-02-17T00:37:53.758Z,7.11
2023-02-17T00:40:20.265Z,7.12
2023-02-17T00:42:47.861Z,7.11
2023-02-17T00:45:14.534Z,7.09
2023-02-17T00:47:41.034Z,7.15
2023-02-17T00:50:09.788Z,7.19
2023-02-17T00:52:36.257Z,7.23
2023-02-17T00:55:03.361Z,7.22
2023-02-17T00:57:32.324Z,7.23
2023-02-17T00:59:59.055Z,7.22
2023-02-17T01:02:26.337Z,7.25
2023-02-17T01:04:53.405Z,7.28
2023-02-17T01:07:19.965Z,7.33
2023-02-17T01:09:47.147Z,7.33
2023-02-17T01:12:13.665Z,7.31
2023-02-17T01:14:40.170Z,7.35
2023-02-17T01:17:06.678Z,7.40
2023-02-17T01:19:33.228Z,7.32
2023-02-17T01:21:59.729Z,7.34
2023-02-17T01:24:26.838Z,7.29
2023-02-17T01:26:53.324Z,7.30
2023-02-17T01:29:19.836Z,7.28
2023-02-17T01:31:46.431Z,7.28
2023-02-17T01:34:12.969Z,7.24
2023-02-17T01:36:39.481Z,7.20
2023-02-17T01:39:05.970Z,7.19
2023-02-17T01:41:32.487Z,7.24
2023-02-17T01:44:20.624Z,7.25
2023-02-17T01:46:49.707Z,7.22
2023-02-17T01:49:16.217Z,7.24
2023-02-17T01:51:44.582Z,7.23
2023-02-17T01:54:35.948Z,7.19
2023-02-17T01:57:03.639Z,7.17
2023-02-17T01:59:34.409Z,7.14
2023-02-17T02:02:04.341Z,7.13
2023-02-17T02:04:34.955Z,7.14
2023-02-17T02:07:03.843Z,7.16
2023-02-17T02:09:54.673Z,7.12
2023-02-17T02:12:30.270Z,7.08
2023-02-17T02:15:00.614Z,7.02
2023-02-17T02:17:33.034Z,7.00
2023-02-17T02:20:21.441Z,7.00
2023-02-17T02:23:23.959Z,6.95
2023-02-17T02:26:07.296Z,6.93
2023-02-17T02:28:47.030Z,6.90
2023-02-17T02:31:23.260Z,6.90
2023-02-17T02:34:19.820Z,6.91
2023-02-17T02:36:54.856Z,6.88
2023-02-17T02:39:27.740Z,6.87
2023-02-17T02:41:58.745Z,6.88
2023-02-17T02:44:25.332Z,6.89
2023-02-17T02:47:06.401Z,6.89
2023-02-17T02:49:36.536Z,6.90
2023-02-17T02:52:30.276Z,6.91
2023-02-17T02:55:30.335Z,6.88
2023-02-17T02:58:18.862Z,6.91
2023-02-17T03:00:53.915Z,6.91
2023-02-17T03:03:26.788Z,6.84
2023-02-17T03:06:33.858Z,6.86
2023-02-17T03:09:12.000Z,6.88
2023-02-17T03:11:40.230Z,6.87
2023-02-17T03:14:12.752Z,6.86
2023-02-17T03:16:42.161Z,6.85
2023-02-17T03:19:10.046Z,6.75
2023-02-17T03:21:47.329Z,6.73
2023-02-17T03:24:14.412Z,6.71
2023-02-17T03:26:40.910Z,6.76
2023-02-17T03:29:08.138Z,6.79
2023-02-17T03:31:35.193Z,6.79
2023-02-17T03:34:02.093Z,6.74
2023-02-17T03:36:29.926Z,6.77
2023-02-17T03:38:57.134Z,6.76
2023-02-17T03:41:24.294Z,6.65
2023-02-17T03:43:50.782Z,6.75
2023-02-17T03:46:18.438Z,6.77
2023-02-17T03:48:45.003Z,6.81
2023-02-17T03:51:19.996Z,6.79
2023-02-17T03:53:47.038Z,6.72
2023-02-17T03:56:14.479Z,6.65
2023-02-17T03:58:41.737Z,6.54
2023-02-17T04:01:10.194Z,6.52
2023-02-17T04:03:37.689Z,6.57
2023-02-17T04:06:05.308Z,6.67
2023-02-17T04:08:32.684Z,6.76
2023-02-17T04:11:01.499Z,6.85
2023-02-17T04:13:28.096Z,6.85
2023-02-17T04:15:55.391Z,6.87
2023-02-17T04:18:22.780Z,6.83
2023-02-17T04:20:50.968Z,6.83
2023-02-17T04:23:18.020Z,6.86
2023-02-17T04:25:45.942Z,6.93
2023-02-17T04:28:13.810Z,7.02
2023-02-17T04:30:43.448Z,7.03
2023-02-17T04:33:10.089Z,7.04
2023-02-17T04:35:36.588Z,7.02
2023-02-17T04:38:03.067Z,7.08
2023-02-17T04:40:29.604Z,7.08
2023-02-17T04:42:56.241Z,7.11
2023-02-17T04:45:23.035Z,7.09
2023-02-17T04:47:50.022Z,7.19
2023-02-17T04:50:16.780Z,7.20
2023-02-17T04:52:43.266Z,7.24
2023-02-17T04:55:10.093Z,7.20
2023-02-17T04:57:36.799Z,7.17
2023-02-17T05:00:05.481Z,7.20
2023-02-17T05:02:32.231Z,7.23
2023-02-17T05:04:58.802Z,7.25
2023-02-17T05:07:25.307Z,7.23
2023-02-17T05:09:51.842Z,7.30
2023-02-17T05:12:18.376Z,7.22
2023-02-17T05:14:44.908Z,7.25
2023-02-17T05:17:11.523Z,7.31
2023-02-17T05:19:38.013Z,7.21
2023-02-17T05:22:04.516Z,7.23
2023-02-17T05:24:31.054Z,7.22
2023-02-17T05:26:57.593Z,7.36
2023-02-17T05:29:24.151Z,7.43
2023-02-17T05:31:50.752Z,7.50
2023-02-17T05:34:17.360Z,7.50
2023-02-17T05:36:43.907Z,7.46
2023-02-17T05:39:10.420Z,7.58
2023-02-17T05:41:36.898Z,7.64
2023-02-17T05:44:03.528Z,7.67
2023-02-17T05:46:30.031Z,7.67
2023-02-17T05:48:56.505Z,7.57
2023-02-17T05:51:23.007Z,7.54
2023-02-17T05:53:49.995Z,7.58
2023-02-17T05:56:16.485Z,7.57
2023-02-17T05:58:43.013Z,7.58
2023-02-17T06:01:10.642Z,7.59
2023-02-17T06:03:37.815Z,7.62
2023-02-17T06:06:05.517Z,7.58
2023-02-17T06:08:32.204Z,7.59
2023-02-17T06:10:58.737Z,7.64
2023-02-17T06:13:25.263Z,7.67
2023-02-17T06:15:51.805Z,7.74
2023-02-17T06:18:18.331Z,7.74
2023-02-17T06:20:44.835Z,7.74
2023-02-17T06:23:11.616Z,7.72
2023-02-17T06:25:38.411Z,7.66
2023-02-17T06:28:05.089Z,7.75
2023-02-17T06:30:31.730Z,7.78
2023-02-17T06:32:59.167Z,7.82
2023-02-17T06:35:25.880Z,7.84
2023-02-17T06:37:53.048Z,7.80
2023-02-17T06:40:19.907Z,7.78
2023-02-17T06:42:46.444Z,7.79
2023-02-17T06:45:12.966Z,7.84
2023-02-17T06:47:39.484Z,7.85
2023-02-17T06:50:06.898Z,7.92
2023-02-17T06:52:33.383Z,7.96
2023-02-17T06:54:59.907Z,7.92
2023-02-17T06:57:26.488Z,7.90
2023-02-17T06:59:55.470Z,7.79
2023-02-17T07:02:22.038Z,7.72
2023-02-17T07:04:48.622Z,7.64
2023-02-17T07:07:15.158Z,7.68
2023-02-17T07:09:41.780Z,7.59
2023-02-17T07:12:08.272Z,7.63
2023-02-17T07:14:35.475Z,7.65
2023-02-17T07:17:02.481Z,7.61
2023-02-17T07:19:29.451Z,7.56
2023-02-17T07:21:56.121Z,7.62
2023-02-17T07:24:22.649Z,7.67
2023-02-17T07:26:49.428Z,7.71
2023-02-17T07:29:16.164Z,7.71
2023-02-17T07:31:42.772Z,7.70
2023-02-17T07:34:09.307Z,7.71
2023-02-17T07:36:35.886Z,7.74
2023-02-17T07:39:03.488Z,7.81
2023-02-17T07:41:32.738Z,7.79
2023-02-17T07:44:07.922Z,7.82
2023-02-17T07:46:37.378Z,7.83
2023-02-17T07:49:04.098Z,7.89
2023-02-17T07:51:30.970Z,7.95
2023-02-17T07:53:57.542Z,8.02
2023-02-17T07:56:24.580Z,8.07
2023-02-17T07:58:51.331Z,8.07
2023-02-17T08:01:20.749Z,8.07
2023-02-17T08:03:48.597Z,8.14
2023-02-17T08:06:21.200Z,8.04
2023-02-17T08:09:07.825Z,8.07
2023-02-17T08:11:53.660Z,8.10
2023-02-17T08:14:22.955Z,8.24
2023-02-17T08:16:49.993Z,8.31
2023-02-17T08:19:16.906Z,8.27
2023-02-17T08:21:43.512Z,8.31
2023-02-17T08:24:10.477Z,8.39
2023-02-17T08:26:37.092Z,8.40
2023-02-17T08:29:04.140Z,8.47
2023-02-17T08:31:33.452Z,8.56
2023-02-17T08:34:01.597Z,8.57
2023-02-17T08:36:29.055Z,8.70
2023-02-17T08:38:56.269Z,8.57
2023-02-17T08:41:24.560Z,8.64
2023-02-17T08:43:51.654Z,8.72
2023-02-17T08:46:19.730Z,8.88
2023-02-17T08:48:46.581Z,8.95
2023-02-17T08:51:15.906Z,9.00
2023-02-17T08:53:43.402Z,8.90
2023-02-17T08:56:09.939Z,8.89
2023-02-17T08:58:36.466Z,8.80
2023-02-17T09:01:04.232Z,8.77
2023-02-17T09:03:37.932Z,8.92
2023-02-17T09:06:07.222Z,9.01
2023-02-17T09:08:34.179Z,9.03
2023-02-17T09:11:01.200Z,9.08
2023-02-17T09:13:28.053Z,9.11
2023-02-17T09:15:54.768Z,9.08
2023-02-17T09:18:21.953Z,9.10
2023-02-17T09:20:49.209Z,9.12
2023-02-17T09:23:16.668Z,9.10
2023-02-17T09:25:44.058Z,9.20
2023-02-17T09:28:11.302Z,9.20
2023-02-17T09:30:38.008Z,9.18
2023-02-17T09:33:05.435Z,9.19
2023-02-17T09:35:32.947Z,9.10
2023-02-17T09:38:00.791Z,9.03
2023-02-17T09:40:43.461Z,9.08
2023-02-17T09:43:16.975Z,9.12
2023-02-17T09:45:49.846Z,9.18
2023-02-17T09:48:20.536Z,9.40
2023-02-17T09:50:58.140Z,9.58
2023-02-17T09:53:54.665Z,9.75
2023-02-17T09:56:33.604Z,9.84
2023-02-17T09:59:06.261Z,9.79
2023-02-17T10:01:34.572Z,9.77
2023-02-17T10:04:15.099Z,9.93
2023-02-17T10:06:51.872Z,10.07
2023-02-17T10:09:28.084Z,10.12
2023-02-17T10:12:05.348Z,10.17
2023-02-17T10:15:20.792Z,10.24
2023-02-17T10:18:08.113Z,10.27
2023-02-17T10:20:55.478Z,10.46
2023-02-17T10:23:24.873Z,10.52
2023-02-17T10:26:03.368Z,10.53
2023-02-17T10:28:44.233Z,10.64
2023-02-17T10:31:15.314Z,10.78
2023-02-17T10:34:00.235Z,10.72
2023-02-17T10:36:35.862Z,10.79
2023-02-17T10:39:27.245Z,10.47
2023-02-17T10:41:56.131Z,10.56
2023-02-17T10:44:25.517Z,10.69
2023-02-17T10:46:53.983Z,10.69
2023-02-17T10:49:32.757Z,10.73
2023-02-17T10:52:09.961Z,10.68
2023-02-17T10:54:42.028Z,10.79
2023-02-17T10:57:12.649Z,10.79
2023-02-17T10:59:41.865Z,10.72
2023-02-17T11:02:25.415Z,10.79
2023-02-17T11:04:56.064Z,10.72
2023-02-17T11:07:32.439Z,10.79
2023-02-17T11:10:02.404Z,10.68
2023-02-17T11:12:41.195Z,10.85
2023-02-17T11:15:20.620Z,10.91
2023-02-17T11:17:48.574Z,10.91
2023-02-17T11:20:15.279Z,10.99
2023-02-17T11:22:48.377Z,11.42
2023-02-17T11:25:25.600Z,11.65
2023-02-17T11:27:57.431Z,11.74
2023-02-17T11:30:26.043Z,11.89
2023-02-17T11:32:52.930Z,11.97
2023-02-17T11:35:46.417Z,11.89
2023-02-17T11:38:25.795Z,11.96
2023-02-17T11:41:01.190Z,11.97
2023-02-17T11:43:29.487Z,11.81
2023-02-17T11:46:21.373Z,11.82
2023-02-17T11:49:35.665Z,11.88
2023-02-17T11:52:25.812Z,11.74
2023-02-17T11:55:12.176Z,11.71
2023-02-17T11:57:45.296Z,11.66
2023-02-17T12:00:22.588Z,11.57
2023-02-17T12:03:01.252Z,11.48
2023-02-17T12:05:33.541Z,11.38
2023-02-17T12:08:18.717Z,11.24
2023-02-17T12:11:22.601Z,11.13
2023-02-17T12:14:04.540Z,11.36
2023-02-17T12:16:50.363Z,11.61
2023-02-17T12:19:17.057Z,11.59
2023-02-17T12:22:02.673Z,11.53
2023-02-17T12:24:47.609Z,11.45
2023-02-17T12:27:32.337Z,11.44
2023-02-17T12:30:39.221Z,11.35
2023-02-17T12:33:26.349Z,11.23
2023-02-17T12:36:01.383Z,11.29
2023-02-17T12:38:33.756Z,11.36
2023-02-17T12:41:05.765Z,11.46
2023-02-17T12:43:46.801Z,11.32
2023-02-17T12:46:19.855Z,11.31
2023-02-17T12:49:11.418Z,11.28
2023-02-17T12:51:47.474Z,11.32
2023-02-17T12:54:22.833Z,11.28
2023-02-17T12:57:05.450Z,11.26
2023-02-17T12:59:40.736Z,11.16
2023-02-17T13:02:12.106Z,11.08
2023-02-17T13:04:40.450Z,11.10
2023-02-17T13:07:19.671Z,11.18
2023-02-17T13:09:49.750Z,11.30
2023-02-17T13:12:22.542Z,11.27
2023-02-17T13:14:54.092Z,11.14
2023-02-17T13:17:24.961Z,11.09
2023-02-17T13:20:11.476Z,11.15
2023-02-17T13:22:39.563Z,11.18
2023-02-17T13:25:07.222Z,11.21
2023-02-17T13:27:38.375Z,11.14
2023-02-17T13:30:09.086Z,11.06
2023-02-17T13:32:38.227Z,10.97
2023-02-17T13:35:27.818Z,10.91
2023-02-17T13:37:55.087Z,10.91
2023-02-17T13:40:22.649Z,10.80
2023-02-17T13:42:52.011Z,10.74
2023-02-17T13:45:48.037Z,10.68
2023-02-17T13:48:17.517Z,10.64
2023-02-17T13:50:49.975Z,10.54
2023-02-17T13:53:25.359Z,10.48
2023-02-17T13:55:53.685Z,10.48
2023-02-17T13:58:38.766Z,10.47
2023-02-17T14:01:08.529Z,10.33
2023-02-17T14:03:41.048Z,10.31
2023-02-17T14:06:12.511Z,10.33
2023-02-17T14:08:41.067Z,10.28
2023-02-17T14:11:10.166Z,10.23
2023-02-17T14:13:38.727Z,10.21
2023-02-17T14:16:07.269Z,10.30
2023-02-17T14:18:39.887Z,10.34
2023-02-17T14:21:25.296Z,10.28
2023-02-17T14:23:54.173Z,10.32
2023-02-17T14:26:47.850Z,10.36
2023-02-17T14:29:15.522Z,10.36
2023-02-17T14:31:50.936Z,10.34
2023-02-17T14:34:20.326Z,10.30
2023-02-17T14:36:47.436Z,10.33
2023-02-17T14:39:15.334Z,10.18
2023-02-17T14:41:42.664Z,10.23
2023-02-17T14:44:09.592Z,10.19
2023-02-17T14:46:36.751Z,10.20
2023-02-17T14:49:03.314Z,10.22
2023-02-17T14:51:36.317Z,10.28
2023-02-17T14:54:10.823Z,10.33
2023-02-17T14:56:46.736Z,10.31
2023-02-17T14:59:13.487Z,10.39
2023-02-17T15:01:40.377Z,10.43
2023-02-17T15:04:07.754Z,10.53
2023-02-17T15:06:44.612Z,10.56
2023-02-17T15:09:13.757Z,10.55
2023-02-17T15:11:42.568Z,10.53
2023-02-17T15:14:14.710Z,10.52
2023-02-17T15:16:41.768Z,10.43
2023-02-17T15:19:10.385Z,10.41
2023-02-17T15:21:39.549Z,10.37
2023-02-17T15:24:19.681Z,10.34
2023-02-17T15:26:48.029Z,10.37
2023-02-17T15:29:20.502Z,10.41
2023-02-17T15:31:48.456Z,10.47
2023-02-17T15:34:18.358Z,10.31
2023-02-17T15:36:45.907Z,10.37
2023-02-17T15:39:15.095Z,10.31
2023-02-17T15:41:43.428Z,10.34
2023-02-17T15:44:17.772Z,10.35
2023-02-17T15:46:46.207Z,10.32
2023-02-17T15:49:13.843Z,10.43
2023-02-17T15:51:40.614Z,10.41
2023-02-17T15:54:07.478Z,10.42
2023-02-17T15:56:47.040Z,10.47
2023-02-17T15:59:20.485Z,10.51
2023-02-17T16:10:03.680Z,10.47
2023-02-17T16:13:49.712Z,10.36
2023-02-17T16:16:23.961Z,10.28
2023-02-17T16:18:51.471Z,10.26
2023-02-17T16:21:18.423Z,10.26
2023-02-17T16:23:48.015Z,10.26
2023-02-17T16:26:25.697Z,10.21
2023-02-17T16:28:53.315Z,10.17
2023-02-17T16:31:20.437Z,10.20
2023-02-17T16:33:47.274Z,10.10
2023-02-17T16:36:16.180Z,10.05
2023-02-17T16:38:44.553Z,10.02
2023-02-17T16:52:57.977Z,9.62
2023-02-17T16:55:28.964Z,9.55
2023-02-17T16:57:56.574Z,9.41
2023-02-17T17:00:26.425Z,9.36
2023-02-17T17:02:54.290Z,9.34
2023-02-17T17:05:21.639Z,9.33
2023-02-17T17:07:51.325Z,9.40
2023-02-17T17:10:21.859Z,9.39
2023-02-17T17:12:49.321Z,9.43
2023-02-17T17:15:17.526Z,9.50
2023-02-17T17:18:02.968Z,9.54
2023-02-17T17:20:37.352Z,9.57
2023-02-17T17:23:08.267Z,9.62
2023-02-17T17:25:37.961Z,9.61
2023-02-17T17:28:06.054Z,9.61
2023-02-17T17:30:38.243Z,9.53
2023-02-17T17:33:05.580Z,9.49
2023-02-17T17:35:32.716Z,9.44
2023-02-17T17:37:59.678Z,9.36
2023-02-17T17:40:30.686Z,9.41
2023-02-17T17:42:58.055Z,9.36
2023-02-17T17:45:26.338Z,9.27
2023-02-17T17:47:53.585Z,9.17
2023-02-17T17:50:23.871Z,9.01
2023-02-17T17:52:51.096Z,8.95
2023-02-17T17:55:18.345Z,8.86
2023-02-17T17:57:45.852Z,8.75
2023-02-17T18:00:15.587Z,8.65
2023-02-17T18:02:43.379Z,8.56
2023-02-17T18:05:10.783Z,8.44
2023-02-17T18:07:38.614Z,8.43
2023-02-17T18:10:08.974Z,8.35
2023-02-17T18:12:36.971Z,8.41
2023-02-17T18:15:06.413Z,8.47
2023-02-17T18:17:35.628Z,8.62
2023-02-17T18:20:02.936Z,8.79
2023-02-17T18:22:30.089Z,8.86
2023-02-17T18:24:57.270Z,8.88
2023-02-17T18:27:25.961Z,8.84
2023-02-17T18:29:57.026Z,8.82
2023-02-17T18:32:25.771Z,8.85
2023-02-17T18:34:53.659Z,8.88
2023-02-17T18:37:21.923Z,8.90
2023-02-17T18:39:50.114Z,8.93
2023-02-17T18:42:17.532Z,8.93
2023-02-17T18:44:44.700Z,8.92
2023-02-17T18:47:11.930Z,8.93
2023-02-17T18:49:39.536Z,8.93
2023-02-17T18:52:07.554Z,9.00
2023-02-17T18:54:35.147Z,9.06
2023-02-17T18:57:02.581Z,9.05
2023-02-17T18:59:32.451Z,9.05
2023-02-17T19:02:01.083Z,9.06
2023-02-17T19:04:28.118Z,9.10
2023-02-17T19:06:55.316Z,9.10
2023-02-17T19:09:22.635Z,9.10
2023-02-17T19:11:51.017Z,9.14
2023-02-17T19:14:18.270Z,9.19
2023-02-17T19:16:47.822Z,9.16
2023-02-17T19:19:14.985Z,9.18
2023-02-17T19:21:43.431Z,9.18
2023-02-17T19:24:11.402Z,9.20
2023-02-17T19:26:38.669Z,9.20
2023-02-17T19:29:05.985Z,9.26
2023-02-17T19:31:33.456Z,9.21
2023-02-17T19:34:00.587Z,9.16
2023-02-17T19:36:28.008Z,9.16
2023-02-17T19:38:57.865Z,9.17
2023-02-17T19:41:25.832Z,9.22
2023-02-17T19:43:54.100Z,9.14
2023-02-17T19:46:23.126Z,9.07
2023-02-17T19:48:51.233Z,9.02
2023-02-17T19:51:20.089Z,8.97
2023-02-17T19:53:49.429Z,9.03
2023-02-17T19:56:21.205Z,9.06
2023-02-17T19:58:55.868Z,8.97
2023-02-17T20:01:33.234Z,8.95
2023-02-17T20:04:05.015Z,8.99
2023-02-17T20:06:40.651Z,9.01
2023-02-17T20:09:11.666Z,8.98
2023-02-17T20:11:38.832Z,8.95
2023-02-17T20:14:07.431Z,8.96
2023-02-17T20:16:37.384Z,8.96
2023-02-17T20:19:06.831Z,8.93
2023-02-17T20:21:36.540Z,8.93
2023-02-17T20:24:04.881Z,8.93
2023-02-17T20:26:34.938Z,8.90
2023-02-17T20:29:02.213Z,8.87
2023-02-17T20:31:29.431Z,8.82
2023-02-17T20:33:57.241Z,8.86
2023-02-17T20:36:25.759Z,8.82
2023-02-17T20:39:06.637Z,8.76
2023-02-17T20:42:02.797Z,8.75
2023-02-17T20:44:46.774Z,8.77
2023-02-17T20:47:19.041Z,8.85
2023-02-17T20:49:46.663Z,8.82
2023-02-17T20:52:15.509Z,8.81
2023-02-17T20:54:44.662Z,8.77
2023-02-17T20:57:15.015Z,8.76
2023-02-17T20:59:42.346Z,8.75
2023-02-17T21:02:11.753Z,8.80
2023-02-17T21:04:39.665Z,8.76
2023-02-17T21:07:06.835Z,8.77
2023-02-17T21:09:33.995Z,8.84
2023-02-17T21:12:01.530Z,8.76
2023-02-17T21:14:28.712Z,8.73
2023-02-17T21:16:56.911Z,8.74
2023-02-17T21:19:24.360Z,8.72
2023-02-17T21:21:51.442Z,8.72
2023-02-17T21:24:18.485Z,8.67
2023-02-17T21:26:45.663Z,8.72
2023-02-17T21:29:12.720Z,8.71
2023-02-17T21:31:39.919Z,8.74
2023-02-17T21:34:07.383Z,8.76
2023-02-17T21:36:34.647Z,8.69
2023-02-17T21:39:04.376Z,8.72
2023-02-17T21:41:32.744Z,8.67
2023-02-17T21:44:21.132Z,8.69
2023-02-17T21:46:48.987Z,8.65
2023-02-17T21:49:16.387Z,8.68
2023-02-17T21:51:43.574Z,8.66
2023-02-17T21:54:11.804Z,8.59
2023-02-17T21:56:39.604Z,8.59
2023-02-17T21:59:08.254Z,8.63
2023-02-17T22:01:35.512Z,8.61
2023-02-17T22:04:03.988Z,8.56
2023-02-17T22:06:34.566Z,8.56
2023-02-17T22:09:03.708Z,8.54
2023-02-17T22:11:32.891Z,8.51
2023-02-17T22:14:02.714Z,8.47
2023-02-17T22:16:35.442Z,8.42
2023-02-17T22:19:05.037Z,8.41
2023-02-17T22:21:33.738Z,8.40
2023-02-17T22:24:02.346Z,8.38
2023-02-17T22:26:30.588Z,8.32
2023-02-17T22:28:58.130Z,8.29
2023-02-17T22:31:27.657Z,8.27
2023-02-17T22:33:57.985Z,8.20
2023-02-17T22:36:25.455Z,8.26
2023-02-17T22:38:54.032Z,8.28
2023-02-17T22:41:24.883Z,8.30
2023-02-17T22:43:53.053Z,8.24
2023-02-17T22:46:21.967Z,8.28
2023-02-17T22:48:51.506Z,8.19
2023-02-17T22:51:21.264Z,8.24
2023-02-17T22:53:49.855Z,8.27
2023-02-17T22:56:17.451Z,8.24
2023-02-17T22:58:45.350Z,8.23
2023-02-17T23:01:18.384Z,8.20
2023-02-17T23:03:46.286Z,8.16
2023-02-17T23:06:18.217Z,8.12
2023-02-17T23:08:48.768Z,8.18
2023-02-17T23:11:18.640Z,8.17
2023-02-17T23:13:45.950Z,8.18
2023-02-17T23:16:21.726Z,8.17
2023-02-17T23:18:49.113Z,8.17
2023-02-17T23:21:16.409Z,8.17
2023-02-17T23:23:43.460Z,8.15
2023-02-17T23:26:10.987Z,8.20
2023-02-17T23:28:38.098Z,8.22
2023-02-17T23:31:09.796Z,8.15
2023-02-17T23:33:36.797Z,8.15
2023-02-17T23:36:05.407Z,8.17
2023-02-17T23:38:32.654Z,8.15
2023-02-17T23:41:01.233Z,8.03
2023-02-17T23:43:28.525Z,8.00
2023-02-17T23:45:56.470Z,7.94
2023-02-17T23:48:23.538Z,7.98
2023-02-17T23:51:04.160Z,7.97
2023-02-17T23:53:31.351Z,8.04
2023-02-17T23:56:02.016Z,8.02
2023-02-17T23:58:29.377Z,8.02
